createdAt,value
2022-08-05T00:02:07.577Z,69.60
2022-08-05T00:04:40.286Z,72.60
2022-08-05T00:07:27.039Z,72.60
2022-08-05T00:10:05.265Z,71.40
2022-08-05T00:12:55.637Z,70.00
2022-08-05T00:15:55.457Z,71.40
2022-08-05T00:18:27.272Z,70.40
2022-08-05T00:21:01.075Z,71.00
2022-08-05T00:23:45.863Z,71.20
2022-08-05T00:26:26.079Z,72.90
2022-08-05T00:28:58.067Z,71.40
2022-08-05T00:31:54.131Z,71.00
2022-08-05T00:34:55.795Z,71.40
2022-08-05T00:37:15.485Z,71.90
2022-08-05T00:39:58.682Z,71.30
2022-08-05T00:42:36.707Z,71.20
2022-08-05T00:45:11.629Z,72.20
2022-08-05T00:47:56.234Z,72.10
2022-08-05T00:50:29.774Z,73.60
2022-08-05T00:53:01.735Z,73.60
2022-08-05T00:55:43.659Z,72.10
2022-08-05T00:58:16.944Z,70.40
2022-08-05T01:00:51.418Z,69.20
2022-08-05T01:03:24.366Z,68.40
2022-08-05T01:06:03.858Z,68.30
2022-08-05T01:08:42.985Z,68.60
2022-08-05T01:11:21.744Z,69.00
2022-08-05T01:14:35.131Z,69.20
2022-08-05T01:17:22.870Z,69.90
2022-08-05T01:20:35.224Z,69.80
2022-08-05T01:23:57.925Z,70.70
2022-08-05T01:27:17.627Z,71.40
2022-08-05T01:30:17.684Z,72.20
2022-08-05T01:32:52.765Z,72.20
2022-08-05T01:35:53.108Z,72.90
2022-08-05T01:38:29.235Z,73.30
2022-08-05T01:41:05.705Z,73.80
2022-08-05T01:43:39.933Z,73.40
2022-08-05T01:46:16.290Z,74.20
2022-08-05T01:48:51.659Z,74.60
2022-08-05T01:51:26.774Z,75.50
2022-08-05T01:54:08.225Z,75.50
2022-08-05T01:58:10.035Z,75.80
2022-08-05T01:59:41.439Z,75.70
2022-08-05T02:02:26.213Z,75.60
2022-08-05T02:05:11.672Z,75.00
2022-08-05T02:07:56.298Z,76.70
2022-08-05T02:10:39.544Z,76.40
2022-08-05T02:13:53.439Z,76.80
2022-08-05T02:16:56.176Z,76.70
2022-08-05T02:19:47.134Z,76.20
2022-08-05T02:22:31.617Z,76.50
2022-08-05T02:25:22.852Z,75.70
2022-08-05T02:28:08.894Z,77.10
2022-08-05T02:30:56.514Z,77.40
2022-08-05T02:33:57.790Z,76.20
2022-08-05T02:36:36.491Z,76.30
2022-08-05T02:39:15.954Z,76.90
2022-08-05T02:42:00.593Z,77.80
2022-08-05T02:44:36.525Z,79.60
2022-08-05T02:47:13.005Z,77.90
2022-08-05T02:49:49.126Z,77.60
2022-08-05T02:52:29.728Z,78.70
2022-08-05T02:55:10.633Z,77.70
2022-08-05T02:58:12.050Z,79.30
2022-08-05T03:00:49.477Z,78.40
2022-08-05T03:03:24.224Z,79.10
2022-08-05T03:06:56.095Z,79.10
2022-08-05T03:08:52.432Z,80.00
2022-08-05T03:11:55.826Z,80.50
2022-08-05T03:14:18.850Z,80.20
2022-08-05T03:16:53.355Z,80.90
2022-08-05T03:19:34.610Z,80.80
2022-08-05T03:22:16.007Z,82.20
2022-08-05T03:24:52.230Z,82.40
2022-08-05T03:27:29.783Z,80.70
2022-08-05T03:30:18.099Z,81.10
2022-08-05T03:33:06.167Z,81.80
2022-08-05T03:35:41.031Z,81.40
2022-08-05T03:38:17.431Z,81.10
2022-08-05T03:41:10.800Z,82.20
2022-08-05T03:44:09.024Z,81.50
2022-08-05T03:46:35.927Z,82.90
2022-08-05T03:49:08.372Z,81.70
2022-08-05T03:52:36.907Z,83.40
2022-08-05T03:55:51.172Z,82.50
2022-08-05T03:57:53.416Z,81.70
2022-08-05T04:00:31.276Z,83.20
2022-08-05T04:03:05.986Z,84.50
2022-08-05T04:05:40.194Z,85.50
2022-08-05T04:08:30.157Z,84.70
2022-08-05T04:11:08.720Z,86.20
2022-08-05T04:13:49.799Z,85.20
2022-08-05T04:16:25.494Z,86.20
2022-08-05T04:19:11.891Z,86.40
2022-08-05T04:22:08.320Z,85.60
2022-08-05T04:24:52.496Z,88.90
2022-08-05T04:27:33.235Z,86.30
2022-08-05T04:30:15.689Z,87.80
2022-08-05T04:32:47.976Z,88.50
2022-08-05T04:35:20.222Z,89.60
2022-08-05T04:38:02.695Z,89.40
2022-08-05T04:40:44.442Z,90.30
2022-08-05T04:43:22.031Z,90.60
2022-08-05T04:45:55.761Z,90.00
2022-08-05T04:48:28.578Z,90.30
2022-08-05T04:51:03.137Z,92.10
2022-08-05T04:53:38.679Z,91.70
2022-08-05T04:56:14.379Z,91.60
2022-08-05T04:58:47.671Z,91.60
2022-08-05T05:02:06.043Z,91.50
2022-08-05T05:04:11.945Z,92.50
2022-08-05T05:06:49.139Z,92.90
2022-08-05T05:09:25.069Z,93.30
2022-08-05T05:12:01.724Z,93.90
2022-08-05T05:14:36.224Z,94.30
2022-08-05T05:17:09.662Z,94.70
2022-08-05T05:19:44.432Z,95.00
2022-08-05T05:22:23.406Z,94.90
2022-08-05T05:25:00.357Z,95.10
2022-08-05T05:27:41.423Z,95.30
2022-08-05T05:30:31.378Z,96.10
2022-08-05T05:33:15.918Z,96.00
2022-08-05T05:35:59.922Z,96.80
2022-08-05T05:38:32.046Z,96.90
2022-08-05T05:41:04.415Z,96.90
2022-08-05T05:43:57.619Z,97.10
2022-08-05T05:46:31.185Z,97.30
2022-08-05T05:49:06.494Z,97.40
2022-08-05T05:51:55.484Z,97.20
2022-08-05T05:54:51.036Z,97.00
2022-08-05T05:57:20.286Z,96.70
2022-08-05T05:59:52.878Z,96.40
2022-08-05T06:02:32.539Z,96.30
2022-08-05T06:05:16.508Z,96.20
2022-08-05T06:07:57.525Z,95.50
2022-08-05T06:10:34.509Z,95.20
2022-08-05T06:13:09.543Z,94.90
2022-08-05T06:16:29.706Z,94.10
2022-08-05T06:18:39.427Z,93.30
2022-08-05T06:21:18.604Z,92.30
2022-08-05T06:23:50.945Z,91.50
2022-08-05T06:26:24.059Z,90.10
2022-08-05T06:28:57.432Z,89.30
2022-08-05T06:31:30.600Z,87.50
2022-08-05T06:34:08.899Z,85.00
2022-08-05T06:36:57.679Z,82.30
2022-08-05T06:39:31.268Z,78.50
2022-08-05T06:42:04.024Z,77.20
2022-08-05T06:44:36.755Z,76.00
2022-08-05T06:47:30.247Z,73.70
2022-08-05T06:50:05.150Z,72.50
2022-08-05T06:52:40.460Z,70.70
2022-08-05T06:55:12.621Z,68.60
2022-08-05T06:58:03.524Z,68.80
2022-08-05T07:00:41.131Z,68.60
2022-08-05T07:03:13.314Z,67.90
2022-08-05T07:05:48.746Z,69.00
2022-08-05T07:08:28.855Z,71.00
2022-08-05T07:11:01.948Z,71.20
2022-08-05T07:13:59.302Z,71.80
2022-08-05T07:17:59.723Z,71.80
2022-08-05T07:22:36.599Z,67.80
2022-08-05T07:25:53.955Z,67.50
2022-08-05T07:28:05.847Z,65.80
2022-08-05T07:30:41.939Z,64.00
2022-08-05T07:33:16.075Z,64.00
2022-08-05T07:36:03.518Z,63.80
2022-08-05T07:38:43.491Z,62.10
2022-08-05T07:42:13.507Z,61.50
2022-08-05T07:44:18.734Z,59.10
2022-08-05T07:46:51.622Z,58.50
2022-08-05T07:49:23.643Z,56.60
2022-08-05T07:51:55.717Z,56.80
2022-08-05T07:54:30.582Z,57.80
2022-08-05T07:57:17.890Z,56.70
2022-08-05T07:59:58.839Z,55.30
2022-08-05T08:03:13.708Z,54.00
2022-08-05T08:05:23.273Z,53.50
2022-08-05T08:08:00.100Z,54.40
2022-08-05T08:10:33.235Z,52.90
2022-08-05T08:13:06.762Z,53.70
2022-08-05T08:16:50.339Z,55.20
2022-08-05T08:18:35.968Z,56.70
2022-08-05T08:21:15.999Z,56.80
2022-08-05T08:24:02.841Z,57.20
2022-08-05T08:26:37.013Z,53.90
2022-08-05T08:29:21.924Z,54.70
2022-08-05T08:32:05.680Z,54.60
2022-08-05T08:34:43.994Z,55.90
2022-08-05T08:37:18.734Z,55.30
2022-08-05T08:39:51.104Z,55.80
2022-08-05T08:42:33.779Z,55.40
2022-08-05T08:45:23.662Z,54.30
2022-08-05T08:48:22.272Z,55.80
2022-08-05T08:51:22.299Z,56.40
2022-08-05T08:53:54.200Z,57.00
2022-08-05T08:56:27.318Z,58.00
2022-08-05T08:59:01.255Z,56.60
2022-08-05T09:01:43.044Z,57.80
2022-08-05T09:04:30.335Z,56.50
2022-08-05T09:07:19.329Z,56.60
2022-08-05T09:09:51.588Z,55.90
2022-08-05T09:12:27.293Z,57.00
2022-08-05T09:15:05.753Z,56.20
2022-08-05T09:17:42.733Z,55.20
2022-08-05T09:20:36.424Z,56.00
2022-08-05T09:23:19.636Z,56.90
2022-08-05T09:26:06.673Z,56.70
2022-08-05T09:28:48.017Z,57.00
2022-08-05T09:31:43.339Z,55.50
2022-08-05T09:34:14.875Z,55.30
2022-08-05T09:36:54.968Z,55.50
2022-08-05T09:39:45.300Z,54.10
2022-08-05T09:42:24.237Z,54.90
2022-08-05T09:46:04.611Z,55.30
2022-08-05T09:48:37.032Z,55.00
2022-08-05T09:51:14.807Z,54.10
2022-08-05T09:53:54.575Z,53.60
2022-08-05T09:56:52.342Z,54.40
2022-08-05T09:59:27.732Z,55.10
2022-08-05T10:02:01.166Z,56.90
2022-08-05T10:04:39.697Z,56.20
2022-08-05T10:07:20.467Z,54.70
2022-08-05T10:10:32.567Z,54.50
2022-08-05T10:13:10.197Z,54.20
2022-08-05T10:15:43.892Z,54.10
2022-08-05T10:18:20.305Z,54.80
2022-08-05T10:20:56.820Z,53.90
2022-08-05T10:23:59.672Z,53.60
2022-08-05T10:26:32.700Z,53.60
2022-08-05T10:29:08.131Z,53.00
2022-08-05T10:32:51.964Z,55.00
2022-08-05T10:34:35.075Z,53.50
2022-08-05T10:37:13.665Z,55.10
2022-08-05T10:40:03.729Z,54.20
2022-08-05T10:42:53.171Z,53.40
2022-08-05T10:45:41.871Z,53.90
2022-08-05T10:48:53.011Z,54.10
2022-08-05T10:51:53.039Z,54.30
2022-08-05T10:55:04.720Z,54.80
2022-08-05T10:57:41.342Z,53.90
2022-08-05T11:00:23.033Z,54.00
2022-08-05T11:03:24.811Z,54.10
2022-08-05T11:06:15.407Z,54.10
2022-08-05T11:09:39.349Z,54.00
2022-08-05T11:12:45.206Z,53.60
2022-08-05T11:16:01.278Z,53.10
2022-08-05T11:18:47.101Z,53.70
2022-08-05T11:21:40.919Z,53.70
2022-08-05T11:24:30.120Z,54.50
2022-08-05T11:27:50.908Z,54.10
2022-08-05T11:30:24.138Z,52.70
2022-08-05T11:33:44.045Z,53.00
2022-08-05T11:36:47.252Z,53.10
2022-08-05T11:40:00.688Z,51.30
2022-08-05T11:42:40.718Z,53.30
2022-08-05T11:46:15.428Z,52.70
2022-08-05T11:48:25.844Z,51.60
2022-08-05T11:50:58.422Z,52.20
2022-08-05T11:53:40.966Z,52.40
2022-08-05T11:56:15.236Z,51.70
2022-08-05T11:58:52.898Z,50.40
2022-08-05T12:01:25.329Z,51.00
2022-08-05T12:03:57.514Z,51.10
2022-08-05T12:06:35.897Z,50.90
2022-08-05T12:09:08.066Z,50.60
2022-08-05T12:11:56.580Z,51.40
2022-08-05T12:14:39.463Z,49.90
2022-08-05T12:18:02.738Z,49.80
2022-08-05T12:20:16.627Z,50.80
2022-08-05T12:23:11.974Z,49.20
2022-08-05T12:25:56.609Z,51.20
2022-08-05T12:28:37.698Z,50.80
2022-08-05T12:31:10.649Z,51.40
2022-08-05T12:33:57.287Z,51.40
2022-08-05T12:36:32.941Z,51.40
2022-08-05T12:39:06.912Z,51.20
2022-08-05T12:41:43.601Z,50.80
2022-08-05T12:44:28.547Z,52.70
2022-08-05T12:47:12.572Z,51.90
2022-08-05T12:50:03.753Z,51.80
2022-08-05T12:53:00.220Z,52.20
2022-08-05T12:55:32.911Z,53.00
2022-08-05T12:58:48.355Z,52.50
2022-08-05T13:02:00.626Z,53.30
2022-08-05T13:03:55.374Z,53.40
2022-08-05T13:06:29.924Z,52.80
2022-08-05T13:09:13.646Z,54.30
2022-08-05T13:12:01.952Z,53.20
2022-08-05T13:14:42.266Z,53.60
2022-08-05T13:17:20.459Z,53.30
2022-08-05T13:20:20.318Z,54.00
2022-08-05T13:23:07.156Z,54.20
2022-08-05T13:25:52.790Z,54.40
2022-08-05T13:28:32.764Z,52.00
2022-08-05T13:31:11.208Z,52.70
2022-08-05T13:34:21.465Z,52.80
2022-08-05T13:36:39.004Z,52.40
2022-08-05T13:40:14.514Z,53.20
2022-08-05T13:42:06.057Z,52.30
2022-08-05T13:44:43.274Z,52.80
2022-08-05T13:47:35.029Z,53.00
2022-08-05T13:50:11.426Z,51.90
2022-08-05T13:52:46.900Z,51.20
2022-08-05T13:55:41.795Z,52.40
2022-08-05T13:58:14.281Z,51.20
2022-08-05T14:01:03.429Z,52.10
2022-08-05T14:03:36.326Z,51.40
2022-08-05T14:06:25.637Z,52.30
2022-08-05T14:08:59.524Z,51.70
2022-08-05T14:11:32.369Z,52.90
2022-08-05T14:14:26.068Z,53.10
2022-08-05T14:17:05.395Z,55.10
2022-08-05T14:19:55.943Z,53.10
2022-08-05T14:22:34.520Z,52.50
2022-08-05T14:25:21.698Z,52.90
2022-08-05T14:27:56.249Z,52.10
2022-08-05T14:30:30.571Z,51.50
2022-08-05T14:33:04.612Z,51.60
2022-08-05T14:35:50.556Z,52.10
2022-08-05T14:38:31.687Z,52.40
2022-08-05T14:41:07.632Z,52.60
2022-08-05T14:44:00.122Z,54.90
2022-08-05T14:46:32.569Z,55.10
2022-08-05T14:49:08.396Z,56.10
2022-08-05T14:51:42.943Z,55.00
2022-08-05T14:54:28.386Z,55.30
2022-08-05T14:57:05.253Z,55.90
2022-08-05T14:59:41.873Z,56.50
2022-08-05T15:02:15.125Z,57.30
2022-08-05T15:04:56.282Z,57.40
2022-08-05T15:08:12.076Z,57.10
2022-08-05T15:10:20.726Z,57.00
2022-08-05T15:13:03.636Z,57.80
2022-08-05T15:15:54.910Z,58.10
2022-08-05T15:18:28.466Z,58.10
2022-08-05T15:21:07.395Z,57.90
2022-08-05T15:23:40.190Z,58.50
2022-08-05T15:26:12.397Z,58.10
2022-08-05T15:28:46.325Z,57.80
2022-08-05T15:31:24.065Z,58.00
2022-08-05T15:34:31.715Z,58.00
2022-08-05T15:37:00.518Z,58.60
2022-08-05T15:41:01.807Z,58.20
2022-08-05T15:42:56.218Z,58.40
2022-08-05T15:45:38.018Z,59.30
2022-08-05T15:48:15.135Z,58.90
2022-08-05T15:50:47.930Z,58.70
2022-08-05T15:53:20.074Z,60.10
2022-08-05T15:56:02.090Z,59.30
2022-08-05T15:58:46.380Z,59.80
2022-08-05T16:01:19.439Z,60.90
2022-08-05T16:03:52.798Z,61.90
2022-08-05T16:06:24.871Z,62.50
2022-08-05T16:08:57.019Z,63.00
2022-08-05T16:11:42.728Z,63.30
2022-08-05T16:14:17.449Z,63.70
2022-08-05T16:16:51.097Z,62.60
2022-08-05T16:20:03.131Z,62.70
2022-08-05T16:22:15.641Z,63.30
2022-08-05T16:24:51.575Z,64.00
2022-08-05T16:27:32.104Z,64.20
2022-08-05T16:30:25.652Z,64.10
2022-08-05T16:32:59.583Z,64.00
2022-08-05T16:35:34.654Z,64.30
2022-08-05T16:38:18.662Z,64.60
2022-08-05T16:41:01.396Z,64.40
2022-08-05T16:43:35.387Z,65.50
2022-08-05T16:46:12.952Z,66.10
2022-08-05T16:48:57.179Z,66.50
2022-08-05T16:51:31.051Z,67.20
2022-08-05T16:54:25.719Z,67.10
2022-08-05T16:57:01.467Z,67.60
2022-08-05T16:59:34.480Z,67.90
2022-08-05T17:02:27.818Z,68.50
2022-08-05T17:05:00.550Z,69.50
2022-08-05T17:07:39.230Z,69.40
2022-08-05T17:10:15.908Z,70.30
2022-08-05T17:12:51.502Z,70.40
2022-08-05T17:15:29.492Z,70.20
2022-08-05T17:18:18.998Z,70.90
2022-08-05T17:20:51.212Z,70.90
2022-08-05T17:24:04.328Z,70.60
2022-08-05T17:26:15.483Z,71.40
2022-08-05T17:28:47.550Z,71.10
2022-08-05T17:31:24.512Z,71.10
2022-08-05T17:34:17.749Z,71.00
2022-08-05T17:36:50.138Z,70.90
2022-08-05T17:39:24.438Z,72.00
2022-08-05T17:42:28.495Z,72.50
2022-08-05T17:45:09.823Z,72.20
2022-08-05T17:47:55.696Z,72.70
2022-08-05T17:50:30.358Z,72.80
2022-08-05T17:53:05.425Z,74.30
2022-08-05T17:55:40.003Z,75.90
2022-08-05T17:58:14.593Z,76.50
2022-08-05T18:00:50.556Z,78.20
2022-08-05T18:03:59.596Z,79.30
2022-08-05T18:06:15.736Z,80.20
2022-08-05T18:08:52.369Z,81.00
2022-08-05T18:11:29.695Z,81.10
2022-08-05T18:14:20.570Z,81.10
2022-08-05T18:16:52.953Z,82.00
2022-08-05T18:19:26.002Z,81.90
2022-08-05T18:22:07.383Z,82.80
2022-08-05T18:24:41.990Z,82.70
2022-08-05T18:27:18.741Z,83.20
2022-08-05T18:29:54.523Z,83.40
2022-08-05T18:32:28.084Z,83.90
2022-08-05T18:35:01.768Z,84.80
2022-08-05T18:37:40.363Z,84.60
2022-08-05T18:41:50.840Z,85.00
2022-08-05T18:43:09.021Z,85.70
2022-08-05T18:45:48.913Z,85.50
2022-08-05T18:48:31.485Z,86.00
2022-08-05T18:52:02.789Z,86.10
2022-08-05T18:54:36.141Z,86.30
2022-08-05T18:57:15.531Z,86.60
2022-08-05T19:00:01.844Z,86.90
2022-08-05T19:02:38.205Z,87.20
2022-08-05T19:06:06.117Z,87.10
2022-08-05T19:08:13.533Z,87.20
2022-08-05T19:10:47.491Z,88.20
2022-08-05T19:13:20.492Z,88.30
2022-08-05T19:15:59.983Z,88.60
2022-08-05T19:18:36.812Z,89.90
2022-08-05T19:21:12.292Z,90.00
2022-08-05T19:24:06.101Z,89.70
2022-08-05T19:26:54.517Z,90.00
2022-08-05T19:29:36.485Z,90.00
2022-08-05T19:32:11.733Z,90.10
2022-08-05T19:34:55.332Z,89.80
2022-08-05T19:37:34.902Z,90.00
2022-08-05T19:40:24.256Z,90.70
2022-08-05T19:43:05.580Z,90.80
2022-08-05T19:45:39.884Z,91.90
2022-08-05T19:48:27.134Z,92.70
2022-08-05T19:50:59.273Z,93.20
2022-08-05T19:54:04.142Z,93.30
2022-08-05T19:56:32.679Z,93.90
2022-08-05T19:59:53.747Z,94.60
2022-08-05T20:02:03.394Z,94.90
2022-08-05T20:04:35.947Z,96.30
2022-08-05T20:07:13.030Z,99.00
2022-08-05T20:09:53.595Z,99.90
2022-08-05T20:12:26.502Z,99.90
2022-08-05T20:14:58.944Z,99.90
2022-08-05T20:17:32.463Z,99.90
2022-08-05T20:20:10.976Z,99.90
2022-08-05T20:22:44.150Z,99.90
2022-08-05T20:25:19.191Z,99.90
2022-08-05T20:27:55.426Z,99.90
2022-08-05T20:30:30.293Z,99.90
2022-08-05T20:33:03.033Z,99.90
2022-08-05T20:35:40.273Z,99.90
2022-08-05T20:38:22.703Z,99.90
2022-08-05T20:41:00.441Z,99.90
2022-08-05T20:43:59.988Z,99.90
2022-08-05T20:46:29.563Z,99.90
2022-08-05T20:49:02.691Z,99.90
2022-08-05T20:51:38.498Z,99.90
2022-08-05T20:54:13.897Z,99.90
2022-08-05T20:56:46.583Z,99.90
2022-08-05T20:59:26.708Z,99.90
2022-08-05T21:02:13.546Z,99.90
2022-08-05T21:04:50.272Z,99.90
2022-08-05T21:07:23.921Z,99.90
2022-08-05T21:09:57.856Z,99.90
2022-08-05T21:12:30.235Z,99.90
2022-08-05T21:15:02.482Z,99.90
2022-08-05T21:17:34.760Z,99.90
2022-08-05T21:20:10.191Z,99.90
2022-08-05T21:22:43.096Z,99.90
2022-08-05T21:25:15.316Z,99.90
2022-08-05T21:27:47.794Z,99.90
2022-08-05T21:30:25.739Z,99.90
2022-08-05T21:32:58.208Z,99.90
2022-08-05T21:35:55.827Z,99.90
2022-08-05T21:38:23.315Z,99.90
2022-08-05T21:40:57.220Z,99.90
2022-08-05T21:43:41.587Z,99.90
2022-08-05T21:46:14.081Z,99.90
2022-08-05T21:48:46.525Z,99.90
2022-08-05T21:52:15.485Z,99.90
2022-08-05T21:54:11.859Z,99.90
2022-08-05T21:56:51.386Z,99.90
2022-08-05T21:59:30.476Z,99.90
2022-08-05T22:02:14.678Z,99.90
2022-08-05T22:04:46.905Z,99.90
2022-08-05T22:07:39.408Z,99.90
2022-08-05T22:10:15.757Z,99.90
2022-08-05T22:12:50.581Z,99.90
2022-08-05T22:16:04.631Z,99.90
2022-08-05T22:18:15.587Z,99.90
2022-08-05T22:20:52.428Z,99.90
2022-08-05T22:24:00.831Z,99.90
2022-08-05T22:27:16.611Z,99.90
2022-08-05T22:30:17.155Z,99.90
2022-08-05T22:32:49.287Z,99.90
2022-08-05T22:35:21.399Z,99.90
2022-08-05T22:37:59.279Z,99.90
2022-08-05T22:40:32.070Z,99.90
2022-08-05T22:43:05.332Z,99.90
2022-08-05T22:45:37.520Z,99.90
2022-08-05T22:48:10.855Z,99.90
2022-08-05T22:50:46.143Z,99.90
2022-08-05T22:53:35.816Z,99.90
2022-08-05T22:56:09.823Z,99.90
2022-08-05T22:58:43.772Z,99.90
2022-08-05T23:01:16.573Z,99.90
2022-08-05T23:03:58.021Z,99.90
2022-08-05T23:06:31.745Z,99.90
2022-08-05T23:09:26.770Z,99.90
2022-08-05T23:11:56.665Z,99.90
2022-08-05T23:14:32.363Z,99.90
2022-08-05T23:17:24.264Z,99.90
2022-08-05T23:20:17.550Z,99.90
2022-08-05T23:22:50.115Z,99.90
2022-08-05T23:25:52.052Z,99.90
2022-08-05T23:28:20.644Z,99.90
2022-08-05T23:30:55.509Z,99.90
2022-08-05T23:34:04.396Z,99.90
2022-08-05T23:36:21.453Z,99.90
2022-08-05T23:39:00.861Z,99.90
2022-08-05T23:41:34.189Z,99.90
2022-08-05T23:44:09.793Z,99.90
2022-08-05T23:46:41.950Z,99.90
2022-08-05T23:49:15.962Z,99.90
2022-08-05T23:52:12.906Z,99.90
2022-08-05T23:55:09.058Z,99.90
2022-08-05T23:57:41.289Z,99.90
